Time;durP1;ratioP1;P1;durP2;ratioP2;P2;SDS_P1;SDS_P2;PMS_P1;PMS_P2;Temp;Humidity;BMP_temperature;BMP_pressure;BME280_temperature;BME280_humidity;BME280_pressure;Samples;Min_cycle;Max_cycle;Signal;HPM_P1;HPM_P2
2022/03/30 00:02:15;;;;;;;7.72;4.47;;;;;;;;;;5051942;28;20466;-46
2022/03/30 00:04:42;;;;;;;8.10;5.00;;;;;;;;;;5033475;28;20028;-45
2022/03/30 00:07:08;;;;;;;8.38;4.35;;;;;;;;;;5052261;28;20082;-46
2022/03/30 00:09:34;;;;;;;6.72;4.80;;;;;;;;;;5050962;28;20445;-44
2022/03/30 00:12:00;;;;;;;9.90;6.35;;;;;;;;;;5052293;28;20386;-44
2022/03/30 00:14:26;;;;;;;7.75;5.03;;;;;;;;;;5051311;28;20060;-52
2022/03/30 00:16:52;;;;;;;13.60;5.43;;;;;;;;;;5052046;28;20033;-44
2022/03/30 00:19:18;;;;;;;9.27;5.00;;;;;;;;;;5051843;28;20039;-44
2022/03/30 00:21:45;;;;;;;7.68;4.88;;;;;;;;;;5051070;28;20178;-44
2022/03/30 00:24:11;;;;;;;7.75;4.90;;;;;;;;;;5051955;28;20044;-45
2022/03/30 00:26:37;;;;;;;6.93;4.53;;;;;;;;;;5051157;28;20033;-44
2022/03/30 00:29:04;;;;;;;9.43;4.72;;;;;;;;;;5051384;28;20033;-44
2022/03/30 00:31:30;;;;;;;11.10;5.32;;;;;;;;;;5050934;28;20021;-44
2022/03/30 00:33:56;;;;;;;7.65;5.15;;;;;;;;;;5051866;28;20025;-48
2022/03/30 00:36:22;;;;;;;7.72;5.35;;;;;;;;;;5051517;28;20119;-44
2022/03/30 00:38:48;;;;;;;6.45;4.55;;;;;;;;;;5050469;28;20052;-49
2022/03/30 00:41:14;;;;;;;6.45;4.53;;;;;;;;;;5051898;28;20039;-45
2022/03/30 00:43:40;;;;;;;8.65;4.88;;;;;;;;;;5050911;28;20471;-45
2022/03/30 00:46:06;;;;;;;8.18;4.78;;;;;;;;;;5051745;28;20029;-45
2022/03/30 00:48:32;;;;;;;10.95;5.55;;;;;;;;;;5050705;28;20027;-46
2022/03/30 00:50:58;;;;;;;5.95;4.50;;;;;;;;;;5051597;28;20067;-46
2022/03/30 00:53:24;;;;;;;8.98;4.82;;;;;;;;;;5051446;28;20490;-52
2022/03/30 00:55:52;;;;;;;7.47;5.35;;;;;;;;;;5050922;28;20494;-45
2022/03/30 00:58:18;;;;;;;5.57;3.95;;;;;;;;;;5051343;28;20021;-49
2022/03/30 01:00:44;;;;;;;8.45;4.72;;;;;;;;;;5051515;28;20037;-44
2022/03/30 01:03:10;;;;;;;8.20;4.93;;;;;;;;;;5051735;28;20021;-44
2022/03/30 01:05:36;;;;;;;7.63;4.78;;;;;;;;;;5050424;28;20491;-46
2022/03/30 01:08:02;;;;;;;8.32;4.72;;;;;;;;;;5049938;28;20052;-45
2022/03/30 01:10:28;;;;;;;6.95;4.68;;;;;;;;;;5051024;28;20036;-52
2022/03/30 01:12:55;;;;;;;8.30;4.95;;;;;;;;;;5054467;28;20021;-45
2022/03/30 01:15:22;;;;;;;8.98;4.97;;;;;;;;;;5055524;28;20021;-43
2022/03/30 01:17:48;;;;;;;7.60;4.30;;;;;;;;;;5054031;28;20020;-43
2022/03/30 01:20:17;;;;;;;9.75;5.15;;;;;;;;;;5055476;28;20021;-42
2022/03/30 01:22:43;;;;;;;8.73;4.50;;;;;;;;;;5054361;28;20032;-44
2022/03/30 01:25:09;;;;;;;6.13;4.53;;;;;;;;;;5054850;28;20481;-45
2022/03/30 01:27:36;;;;;;;9.45;4.72;;;;;;;;;;5054158;28;20025;-43
2022/03/30 01:32:57;;;;;;;6.88;4.30;;;;;;;;;;5055083;28;20056;-47
2022/03/30 01:35:23;;;;;;;5.38;4.13;;;;;;;;;;5055128;28;20090;-46
2022/03/30 01:37:49;;;;;;;8.65;4.18;;;;;;;;;;5053477;28;20017;-47
2022/03/30 01:40:15;;;;;;;6.80;4.63;;;;;;;;;;5055208;28;20041;-50
2022/03/30 01:42:41;;;;;;;7.70;4.38;;;;;;;;;;5054140;28;20039;-48
2022/03/30 01:45:11;;;;;;;7.70;4.70;;;;;;;;;;5054532;28;20521;-51
2022/03/30 01:47:39;;;;;;;7.40;4.18;;;;;;;;;;5053525;28;20104;-47
2022/03/30 01:50:05;;;;;;;7.55;5.13;;;;;;;;;;5054230;28;20398;-47
2022/03/30 01:52:31;;;;;;;7.53;5.10;;;;;;;;;;5052051;28;20025;-48
2022/03/30 01:54:57;;;;;;;6.75;4.43;;;;;;;;;;5054620;28;20037;-46
2022/03/30 01:57:23;;;;;;;6.38;3.92;;;;;;;;;;5054245;28;20025;-46
2022/03/30 01:59:49;;;;;;;6.25;4.03;;;;;;;;;;5053844;28;20090;-46
2022/03/30 02:02:15;;;;;;;6.30;4.63;;;;;;;;;;5053859;28;20067;-45
2022/03/30 02:04:42;;;;;;;7.40;5.07;;;;;;;;;;5053517;28;20032;-47
2022/03/30 02:07:09;;;;;;;7.63;4.25;;;;;;;;;;5054118;28;20040;-44
2022/03/30 02:09:35;;;;;;;6.95;4.28;;;;;;;;;;5053382;28;20025;-45
2022/03/30 02:12:02;;;;;;;7.35;4.47;;;;;;;;;;5054194;28;20032;-46
2022/03/30 02:14:28;;;;;;;6.97;4.53;;;;;;;;;;5053940;28;20060;-51
2022/03/30 02:16:54;;;;;;;5.65;4.40;;;;;;;;;;5052685;28;20474;-45
2022/03/30 02:19:20;;;;;;;6.30;4.15;;;;;;;;;;5053645;28;20028;-46
2022/03/30 02:21:46;;;;;;;10.07;5.43;;;;;;;;;;5052791;28;20414;-45
2022/03/30 02:24:13;;;;;;;5.20;3.72;;;;;;;;;;5053271;28;20033;-45
2022/03/30 02:26:39;;;;;;;6.38;4.10;;;;;;;;;;5053102;28;20025;-49
2022/03/30 02:29:06;;;;;;;8.40;4.40;;;;;;;;;;5053470;28;20493;-47
2022/03/30 02:31:32;;;;;;;9.05;4.65;;;;;;;;;;5053426;28;20029;-49
2022/03/30 02:33:58;;;;;;;10.30;4.03;;;;;;;;;;5052735;28;20057;-45
2022/03/30 02:36:24;;;;;;;5.75;3.88;;;;;;;;;;5054054;28;20431;-47
2022/03/30 02:38:50;;;;;;;6.97;4.63;;;;;;;;;;5052220;28;20041;-46
2022/03/30 02:41:17;;;;;;;8.35;4.57;;;;;;;;;;5053990;28;20025;-46
2022/03/30 02:43:43;;;;;;;8.18;4.78;;;;;;;;;;5051448;28;20053;-44
2022/03/30 02:46:09;;;;;;;6.85;4.10;;;;;;;;;;5053719;28;20036;-42
2022/03/30 02:48:37;;;;;;;7.07;4.95;;;;;;;;;;5052592;28;20029;-44
2022/03/30 02:51:05;;;;;;;9.70;5.68;;;;;;;;;;5053361;28;20033;-45
2022/03/30 02:53:31;;;;;;;6.40;3.80;;;;;;;;;;5052863;28;20035;-50
2022/03/30 02:55:58;;;;;;;7.85;4.15;;;;;;;;;;5053757;28;20040;-44
2022/03/30 02:58:24;;;;;;;5.22;3.72;;;;;;;;;;5053392;28;20044;-44
2022/03/30 03:00:50;;;;;;;5.65;3.95;;;;;;;;;;5052691;28;20024;-45
2022/03/30 03:03:16;;;;;;;6.20;4.65;;;;;;;;;;5053401;28;20029;-44
2022/03/30 03:05:43;;;;;;;6.38;4.47;;;;;;;;;;5052714;28;20489;-43
2022/03/30 03:08:10;;;;;;;7.68;4.32;;;;;;;;;;5052636;28;20496;-45
2022/03/30 03:10:38;;;;;;;7.32;4.35;;;;;;;;;;5052437;28;20029;-45
2022/03/30 03:13:04;;;;;;;8.82;4.57;;;;;;;;;;5053550;28;20032;-43
2022/03/30 03:15:31;;;;;;;6.88;4.15;;;;;;;;;;5052856;28;20032;-50
2022/03/30 03:17:57;;;;;;;5.47;3.80;;;;;;;;;;5053054;28;20033;-43
2022/03/30 03:20:24;;;;;;;7.03;4.15;;;;;;;;;;5052884;28;20466;-45
2022/03/30 03:22:50;;;;;;;6.28;3.67;;;;;;;;;;5052129;28;20122;-48
2022/03/30 03:25:16;;;;;;;5.80;3.83;;;;;;;;;;5052648;28;20064;-43
2022/03/30 03:27:42;;;;;;;7.05;4.63;;;;;;;;;;5051570;28;20452;-47
2022/03/30 03:30:09;;;;;;;6.38;4.50;;;;;;;;;;5052931;28;20029;-44
2022/03/30 03:32:35;;;;;;;6.43;4.45;;;;;;;;;;5051675;28;20508;-43
2022/03/30 03:35:01;;;;;;;7.60;4.10;;;;;;;;;;5051944;28;20108;-43
2022/03/30 03:37:27;;;;;;;6.60;4.43;;;;;;;;;;5052694;28;20064;-45
2022/03/30 03:39:53;;;;;;;7.10;4.10;;;;;;;;;;5051224;28;20728;-43
2022/03/30 03:42:19;;;;;;;6.97;4.25;;;;;;;;;;5052737;28;20052;-44
2022/03/30 03:44:45;;;;;;;5.82;4.10;;;;;;;;;;5051788;28;20055;-44
2022/03/30 03:47:11;;;;;;;6.78;4.32;;;;;;;;;;5052347;28;20037;-48
2022/03/30 03:49:38;;;;;;;6.70;4.07;;;;;;;;;;5051682;28;20117;-43
2022/03/30 03:52:04;;;;;;;5.15;3.78;;;;;;;;;;5052557;28;20052;-47
2022/03/30 03:54:30;;;;;;;7.43;4.38;;;;;;;;;;5052043;28;20090;-50
2022/03/30 03:56:57;;;;;;;6.07;4.22;;;;;;;;;;5051732;28;20025;-45
2022/03/30 03:59:22;;;;;;;6.95;4.03;;;;;;;;;;5052371;28;20508;-45
2022/03/30 04:01:49;;;;;;;4.47;3.58;;;;;;;;;;5050333;28;20021;-43
2022/03/30 04:04:15;;;;;;;6.10;4.28;;;;;;;;;;5052307;28;20028;-46
2022/03/30 04:06:41;;;;;;;7.28;3.97;;;;;;;;;;5051251;28;20063;-44
2022/03/30 04:09:07;;;;;;;7.22;4.15;;;;;;;;;;5051846;28;20490;-45
2022/03/30 04:11:34;;;;;;;5.45;3.80;;;;;;;;;;5051908;28;20374;-51
2022/03/30 04:14:00;;;;;;;7.65;4.13;;;;;;;;;;5052102;28;20107;-45
2022/03/30 04:16:26;;;;;;;6.50;4.25;;;;;;;;;;5051598;28;20042;-46
2022/03/30 04:18:52;;;;;;;6.13;3.95;;;;;;;;;;5050831;28;20086;-44
2022/03/30 04:21:19;;;;;;;6.63;3.63;;;;;;;;;;5051431;28;20057;-43
2022/03/30 04:23:45;;;;;;;7.05;4.40;;;;;;;;;;5051252;28;20025;-44
2022/03/30 04:26:11;;;;;;;4.75;3.90;;;;;;;;;;5051878;28;20371;-44
2022/03/30 04:28:40;;;;;;;6.68;4.28;;;;;;;;;;5051067;28;20035;-44
2022/03/30 04:31:10;;;;;;;7.63;3.95;;;;;;;;;;5051938;28;20167;-46
2022/03/30 04:33:36;;;;;;;5.72;4.00;;;;;;;;;;5051203;28;20033;-49
2022/03/30 04:36:04;;;;;;;4.90;3.45;;;;;;;;;;5051563;28;20040;-44
2022/03/30 04:38:31;;;;;;;6.35;3.50;;;;;;;;;;5051495;28;20045;-48
2022/03/30 04:40:57;;;;;;;5.95;3.33;;;;;;;;;;5051006;28;20037;-48
2022/03/30 04:43:23;;;;;;;6.20;3.90;;;;;;;;;;5051441;28;20033;-44
2022/03/30 04:45:49;;;;;;;5.60;3.78;;;;;;;;;;5053128;28;20536;-44
2022/03/30 04:48:15;;;;;;;8.90;3.83;;;;;;;;;;5057807;28;20033;-44
2022/03/30 04:50:41;;;;;;;8.10;4.20;;;;;;;;;;5056267;28;20029;-44
2022/03/30 04:53:07;;;;;;;7.13;3.97;;;;;;;;;;5058072;28;20112;-44
2022/03/30 04:55:36;;;;;;;5.13;3.30;;;;;;;;;;5057902;28;20025;-51
2022/03/30 04:58:03;;;;;;;5.75;3.55;;;;;;;;;;5043221;28;20053;-44
2022/03/30 05:00:29;;;;;;;7.88;4.95;;;;;;;;;;5058233;28;20027;-44
2022/03/30 05:02:55;;;;;;;7.07;3.95;;;;;;;;;;5042388;28;20105;-44
2022/03/30 05:05:21;;;;;;;7.07;3.40;;;;;;;;;;5047878;28;20099;-45
2022/03/30 05:07:47;;;;;;;7.22;3.58;;;;;;;;;;5044063;28;21100;-44
2022/03/30 05:10:14;;;;;;;11.27;4.47;;;;;;;;;;5047831;28;20111;-45
2022/03/30 05:12:40;;;;;;;12.05;5.93;;;;;;;;;;5056885;28;20037;-47
2022/03/30 05:15:07;;;;;;;18.00;6.15;;;;;;;;;;5048863;28;20056;-45
2022/03/30 05:17:33;;;;;;;11.57;5.43;;;;;;;;;;5041402;28;20041;-55
2022/03/30 05:19:59;;;;;;;7.22;4.05;;;;;;;;;;5037464;28;20033;-49
2022/03/30 05:22:25;;;;;;;7.07;3.70;;;;;;;;;;5037933;28;20151;-45
2022/03/30 05:24:51;;;;;;;7.25;3.78;;;;;;;;;;5044846;28;20107;-46
2022/03/30 05:27:17;;;;;;;7.78;3.47;;;;;;;;;;5057732;28;20036;-48
2022/03/30 05:29:43;;;;;;;8.77;3.75;;;;;;;;;;5057335;28;20024;-46
2022/03/30 05:32:09;;;;;;;7.00;4.15;;;;;;;;;;5057711;28;20052;-44
2022/03/30 05:34:35;;;;;;;9.10;3.83;;;;;;;;;;5048711;28;20108;-51
2022/03/30 05:37:01;;;;;;;6.38;3.17;;;;;;;;;;5038792;28;20029;-44
2022/03/30 05:39:27;;;;;;;8.18;3.60;;;;;;;;;;5037450;28;20411;-45
2022/03/30 05:41:54;;;;;;;7.13;4.10;;;;;;;;;;5056444;28;20037;-45
2022/03/30 05:44:20;;;;;;;6.80;3.72;;;;;;;;;;5053551;28;20029;-46
2022/03/30 05:46:46;;;;;;;5.90;3.38;;;;;;;;;;5057100;28;20052;-45
2022/03/30 05:49:12;;;;;;;8.52;3.55;;;;;;;;;;5057839;28;20071;-45
2022/03/30 05:51:38;;;;;;;7.38;4.32;;;;;;;;;;5056286;28;20100;-46
2022/03/30 05:54:05;;;;;;;6.50;3.30;;;;;;;;;;5053604;28;20035;-46
2022/03/30 05:59:15;;;;;;;7.10;4.10;;;;;;;;;;5048559;28;20036;-44
2022/03/30 06:01:42;;;;;;;6.85;3.35;;;;;;;;;;5043119;28;20021;-52
2022/03/30 06:04:08;;;;;;;10.15;3.95;;;;;;;;;;5051579;28;20035;-47
2022/03/30 06:06:34;;;;;;;12.63;3.85;;;;;;;;;;5055387;28;20104;-44
2022/03/30 06:09:01;;;;;;;6.60;3.47;;;;;;;;;;5053197;28;20033;-46
2022/03/30 06:11:27;;;;;;;7.75;3.60;;;;;;;;;;5054166;28;20462;-49
2022/03/30 06:13:52;;;;;;;6.85;3.53;;;;;;;;;;5043946;28;20036;-51
2022/03/30 06:16:19;;;;;;;9.40;3.60;;;;;;;;;;5053146;28;20477;-46
2022/03/30 06:18:45;;;;;;;6.95;3.55;;;;;;;;;;5050079;28;20056;-48
2022/03/30 06:21:11;;;;;;;5.75;3.58;;;;;;;;;;5046961;28;20034;-46
2022/03/30 06:23:37;;;;;;;8.20;3.85;;;;;;;;;;5051931;28;20456;-52
2022/03/30 06:26:05;;;;;;;6.70;3.90;;;;;;;;;;5052298;28;20029;-52
2022/03/30 06:28:31;;;;;;;5.80;3.47;;;;;;;;;;5052363;28;20025;-47
2022/03/30 06:30:57;;;;;;;9.07;3.60;;;;;;;;;;5048914;28;20114;-45
2022/03/30 06:33:23;;;;;;;14.30;3.67;;;;;;;;;;5052900;28;20493;-45
2022/03/30 06:35:49;;;;;;;6.93;3.35;;;;;;;;;;5050816;28;20033;-45
2022/03/30 06:38:15;;;;;;;6.53;2.85;;;;;;;;;;5050203;28;20116;-47
2022/03/30 06:40:44;;;;;;;8.20;3.42;;;;;;;;;;5051992;28;20155;-55
2022/03/30 06:43:10;;;;;;;8.65;4.18;;;;;;;;;;5052129;28;20028;-46
2022/03/30 06:45:36;;;;;;;7.40;3.63;;;;;;;;;;5051936;28;20033;-46
2022/03/30 06:48:02;;;;;;;8.95;3.00;;;;;;;;;;5051799;28;20021;-45
2022/03/30 06:50:29;;;;;;;8.30;3.78;;;;;;;;;;5051764;28;20024;-44
2022/03/30 06:52:55;;;;;;;10.85;3.83;;;;;;;;;;5052001;28;20017;-45
2022/03/30 06:55:21;;;;;;;7.70;3.40;;;;;;;;;;5050706;28;20474;-51
2022/03/30 06:57:47;;;;;;;7.93;3.65;;;;;;;;;;5050603;28;20060;-46
2022/03/30 07:00:13;;;;;;;13.57;4.20;;;;;;;;;;5052639;28;20024;-46
2022/03/30 07:02:40;;;;;;;11.20;4.00;;;;;;;;;;5049211;28;20033;-52
2022/03/30 07:05:06;;;;;;;7.38;4.13;;;;;;;;;;5051121;28;20033;-45
2022/03/30 07:10:19;;;;;;;6.50;3.53;;;;;;;;;;5050867;28;20059;-44
2022/03/30 07:12:46;;;;;;;7.43;3.97;;;;;;;;;;5051005;28;20021;-44
2022/03/30 07:15:13;;;;;;;9.05;4.40;;;;;;;;;;5051853;28;20115;-44
2022/03/30 07:17:46;;;;;;;11.20;4.18;;;;;;;;;;5051851;28;20027;-44
2022/03/30 07:20:12;;;;;;;10.98;4.05;;;;;;;;;;5051554;28;20029;-44
2022/03/30 07:22:38;;;;;;;9.57;4.50;;;;;;;;;;5052241;28;20036;-44
2022/03/30 07:25:05;;;;;;;10.90;4.65;;;;;;;;;;5050925;28;20474;-45
2022/03/30 07:27:31;;;;;;;12.23;4.13;;;;;;;;;;5051162;28;20443;-49
2022/03/30 07:29:57;;;;;;;12.43;4.07;;;;;;;;;;5050451;28;20037;-48
2022/03/30 07:32:24;;;;;;;12.98;4.40;;;;;;;;;;5049846;28;20029;-44
2022/03/30 07:34:53;;;;;;;9.18;3.65;;;;;;;;;;5051301;28;20052;-44
2022/03/30 07:37:19;;;;;;;11.27;3.80;;;;;;;;;;5050998;28;20033;-46
2022/03/30 07:39:45;;;;;;;7.18;4.15;;;;;;;;;;5050244;28;20564;-54
2022/03/30 07:42:11;;;;;;;11.10;4.13;;;;;;;;;;5051982;28;20028;-48
2022/03/30 07:44:37;;;;;;;13.88;4.95;;;;;;;;;;5049532;28;20041;-45
2022/03/30 07:47:04;;;;;;;11.20;4.35;;;;;;;;;;5050556;28;20253;-46
2022/03/30 07:49:31;;;;;;;7.30;4.47;;;;;;;;;;5050614;28;20060;-44
2022/03/30 07:52:00;;;;;;;7.80;4.22;;;;;;;;;;5049913;28;20036;-45
2022/03/30 07:54:26;;;;;;;9.93;3.55;;;;;;;;;;5051869;28;20037;-44
2022/03/30 07:56:52;;;;;;;8.75;3.92;;;;;;;;;;5050121;28;20543;-45
2022/03/30 07:59:18;;;;;;;8.10;4.20;;;;;;;;;;5050020;28;20057;-45
2022/03/30 08:01:44;;;;;;;10.95;4.20;;;;;;;;;;5050927;28;20029;-52
2022/03/30 08:04:10;;;;;;;12.00;4.40;;;;;;;;;;5049734;28;20031;-45
2022/03/30 08:06:37;;;;;;;9.63;4.35;;;;;;;;;;5050961;28;20025;-45
2022/03/30 08:09:03;;;;;;;8.95;4.07;;;;;;;;;;5048768;28;20096;-45
2022/03/30 08:11:30;;;;;;;12.85;4.25;;;;;;;;;;5048346;28;20440;-52
2022/03/30 08:13:56;;;;;;;8.35;4.15;;;;;;;;;;5047982;28;20119;-47
2022/03/30 08:16:22;;;;;;;10.02;3.90;;;;;;;;;;5051046;28;20028;-45
2022/03/30 08:18:48;;;;;;;11.02;3.90;;;;;;;;;;5050934;28;20032;-52
2022/03/30 08:23:59;;;;;;;9.93;4.65;;;;;;;;;;5050587;28;20040;-44
2022/03/30 08:26:25;;;;;;;9.35;4.70;;;;;;;;;;5051449;28;20056;-44
2022/03/30 08:28:51;;;;;;;14.70;4.60;;;;;;;;;;5051004;28;20025;-45
2022/03/30 08:31:17;;;;;;;11.50;5.00;;;;;;;;;;5051433;28;20041;-46
2022/03/30 08:33:43;;;;;;;13.55;4.72;;;;;;;;;;5051419;28;20364;-46
2022/03/30 08:36:09;;;;;;;10.32;4.68;;;;;;;;;;5051077;28;20029;-45
2022/03/30 08:38:35;;;;;;;13.75;5.32;;;;;;;;;;5051031;28;20056;-43
2022/03/30 08:41:02;;;;;;;10.40;4.35;;;;;;;;;;5050261;28;20425;-43
2022/03/30 08:43:29;;;;;;;10.05;5.22;;;;;;;;;;5050867;28;20473;-43
2022/03/30 08:45:58;;;;;;;13.23;5.03;;;;;;;;;;5050629;28;20021;-43
2022/03/30 08:48:24;;;;;;;10.38;4.00;;;;;;;;;;5051691;28;21472;-44
2022/03/30 08:50:50;;;;;;;11.48;4.47;;;;;;;;;;5050916;28;20025;-49
2022/03/30 08:53:18;;;;;;;9.75;4.30;;;;;;;;;;5051853;28;20033;-43
2022/03/30 08:55:44;;;;;;;7.97;4.32;;;;;;;;;;5051263;28;20059;-42
2022/03/30 08:58:10;;;;;;;9.57;4.43;;;;;;;;;;5049710;28;20510;-43
2022/03/30 09:00:36;;;;;;;14.20;4.65;;;;;;;;;;5051344;28;20382;-44
2022/03/30 09:03:03;;;;;;;12.82;6.43;;;;;;;;;;5050426;28;20025;-43
2022/03/30 09:05:34;;;;;;;7.20;3.97;;;;;;;;;;5051261;28;20032;-43
2022/03/30 09:08:30;;;;;;;13.63;5.55;;;;;;;;;;5050498;28;20044;-45
2022/03/30 09:10:58;;;;;;;11.40;4.82;;;;;;;;;;5032634;28;20048;-44
2022/03/30 09:13:24;;;;;;;9.45;4.13;;;;;;;;;;5051152;28;20390;-42
2022/03/30 09:15:51;;;;;;;17.23;3.78;;;;;;;;;;5050166;28;20028;-50
2022/03/30 09:18:19;;;;;;;9.90;3.80;;;;;;;;;;5050462;28;20037;-44
2022/03/30 09:20:46;;;;;;;11.88;4.30;;;;;;;;;;5051254;28;20555;-43
2022/03/30 09:23:14;;;;;;;7.53;4.18;;;;;;;;;;5050846;28;20044;-45
2022/03/30 09:25:44;;;;;;;11.73;5.60;;;;;;;;;;5050446;28;20045;-43
2022/03/30 09:28:10;;;;;;;13.60;4.32;;;;;;;;;;5049899;28;20647;-44
2022/03/30 09:30:36;;;;;;;14.98;4.75;;;;;;;;;;5050228;28;20025;-46
2022/03/30 09:33:02;;;;;;;9.73;4.85;;;;;;;;;;5050605;28;20037;-44
2022/03/30 09:35:38;;;;;;;11.98;5.50;;;;;;;;;;5054635;28;20029;-43
2022/03/30 09:38:04;;;;;;;9.85;4.72;;;;;;;;;;5052961;28;20040;-44
2022/03/30 09:40:34;;;;;;;13.38;5.13;;;;;;;;;;5054446;28;20382;-43
2022/03/30 09:43:19;;;;;;;10.80;4.70;;;;;;;;;;5054110;28;20366;-44
2022/03/30 09:45:46;;;;;;;11.02;4.20;;;;;;;;;;5054591;28;20059;-43
2022/03/30 09:48:20;;;;;;;9.38;4.25;;;;;;;;;;5053924;28;20032;-42
2022/03/30 09:50:48;;;;;;;6.68;3.35;;;;;;;;;;5054559;28;20032;-43
2022/03/30 09:53:15;;;;;;;10.10;4.20;;;;;;;;;;5053682;28;20029;-43
2022/03/30 09:56:11;;;;;;;12.15;4.35;;;;;;;;;;5053988;28;20105;-44
2022/03/30 09:58:38;;;;;;;13.82;5.15;;;;;;;;;;5045090;28;20037;-43
2022/03/30 10:01:04;;;;;;;11.63;5.45;;;;;;;;;;5053519;28;20028;-45
2022/03/30 10:03:44;;;;;;;12.55;4.78;;;;;;;;;;5053445;28;20017;-44
2022/03/30 10:06:14;;;;;;;9.57;5.20;;;;;;;;;;5053501;28;20114;-44
2022/03/30 10:08:41;;;;;;;10.10;4.57;;;;;;;;;;5053791;28;20100;-44
2022/03/30 10:11:10;;;;;;;10.90;4.35;;;;;;;;;;5053848;28;20802;-43
2022/03/30 10:13:36;;;;;;;10.77;5.18;;;;;;;;;;5053197;28;20025;-49
2022/03/30 10:16:03;;;;;;;11.35;4.85;;;;;;;;;;5053204;28;20025;-43
2022/03/30 10:18:32;;;;;;;12.52;4.93;;;;;;;;;;5054114;28;20104;-44
2022/03/30 10:21:24;;;;;;;9.45;4.43;;;;;;;;;;5053027;28;20040;-43
2022/03/30 10:23:53;;;;;;;9.18;3.83;;;;;;;;;;5038394;28;20427;-52
2022/03/30 10:26:29;;;;;;;10.60;5.22;;;;;;;;;;5054184;28;20025;-43
2022/03/30 10:29:16;;;;;;;9.48;3.70;;;;;;;;;;5053409;28;20351;-43
2022/03/30 10:31:42;;;;;;;13.63;4.72;;;;;;;;;;5053563;28;20025;-44
2022/03/30 10:34:25;;;;;;;13.18;5.13;;;;;;;;;;5052330;28;20025;-42
2022/03/30 10:37:05;;;;;;;10.98;4.38;;;;;;;;;;5052876;28;20497;-50
2022/03/30 10:39:31;;;;;;;8.68;3.80;;;;;;;;;;5054059;28;20052;-44
2022/03/30 10:42:11;;;;;;;10.80;4.25;;;;;;;;;;5052490;28;20037;-44
2022/03/30 10:44:37;;;;;;;14.02;4.80;;;;;;;;;;5053192;28;20444;-47
2022/03/30 10:47:07;;;;;;;11.15;3.72;;;;;;;;;;5052276;28;20100;-45
2022/03/30 10:49:42;;;;;;;12.25;4.90;;;;;;;;;;5053060;28;20024;-44
2022/03/30 10:52:29;;;;;;;9.63;4.00;;;;;;;;;;5052606;28;20017;-44
2022/03/30 10:55:13;;;;;;;13.57;4.50;;;;;;;;;;5052484;28;20056;-43
2022/03/30 10:57:49;;;;;;;11.38;3.72;;;;;;;;;;5053118;28;20082;-44
2022/03/30 11:00:22;;;;;;;12.23;4.30;;;;;;;;;;5051800;28;20025;-45
2022/03/30 11:02:49;;;;;;;11.15;4.25;;;;;;;;;;5052700;28;20113;-46
2022/03/30 11:05:18;;;;;;;9.40;3.95;;;;;;;;;;5051367;28;20032;-46
2022/03/30 11:07:44;;;;;;;7.00;3.85;;;;;;;;;;5053368;28;20037;-44
2022/03/30 11:10:14;;;;;;;10.73;4.10;;;;;;;;;;5052376;28;20113;-46
2022/03/30 11:12:59;;;;;;;8.93;3.97;;;;;;;;;;5033060;28;20478;-43
2022/03/30 11:15:25;;;;;;;6.35;3.40;;;;;;;;;;5033133;28;20028;-46
2022/03/30 11:17:51;;;;;;;10.50;4.22;;;;;;;;;;5042574;28;20031;-53
2022/03/30 11:20:19;;;;;;;8.90;4.30;;;;;;;;;;5051209;28;20032;-46
2022/03/30 11:22:47;;;;;;;13.10;4.22;;;;;;;;;;5052110;28;20033;-47
2022/03/30 11:25:13;;;;;;;8.88;4.40;;;;;;;;;;5051709;28;20529;-47
2022/03/30 11:27:40;;;;;;;7.13;3.70;;;;;;;;;;5051461;28;20044;-47
2022/03/30 11:30:17;;;;;;;8.40;3.65;;;;;;;;;;5051841;28;20418;-48
2022/03/30 11:32:52;;;;;;;9.30;4.10;;;;;;;;;;5051916;28;20082;-50
2022/03/30 11:35:19;;;;;;;7.88;4.03;;;;;;;;;;5052103;28;20025;-47
2022/03/30 11:37:45;;;;;;;10.15;3.70;;;;;;;;;;5051782;28;20032;-47
2022/03/30 11:40:13;;;;;;;15.73;4.95;;;;;;;;;;5051867;28;20025;-45
2022/03/30 11:42:44;;;;;;;7.45;3.38;;;;;;;;;;5052068;28;20025;-46
2022/03/30 11:45:12;;;;;;;8.40;3.83;;;;;;;;;;5051394;28;20090;-44
2022/03/30 11:47:39;;;;;;;10.32;4.53;;;;;;;;;;5052437;28;20032;-44
2022/03/30 11:50:05;;;;;;;10.75;4.40;;;;;;;;;;5051606;28;20425;-48
2022/03/30 11:52:31;;;;;;;7.40;3.90;;;;;;;;;;5052488;28;20083;-45
2022/03/30 11:54:57;;;;;;;6.10;3.67;;;;;;;;;;5050542;28;20131;-46
2022/03/30 11:57:24;;;;;;;7.53;3.78;;;;;;;;;;5051102;28;20100;-44
2022/03/30 11:59:55;;;;;;;6.10;3.92;;;;;;;;;;5052037;28;20082;-45
2022/03/30 12:02:25;;;;;;;12.55;4.75;;;;;;;;;;5050455;28;20115;-46
2022/03/30 12:04:52;;;;;;;11.65;4.25;;;;;;;;;;5051890;28;20032;-51
2022/03/30 12:07:19;;;;;;;9.88;4.30;;;;;;;;;;5051991;28;20082;-49
2022/03/30 12:10:04;;;;;;;9.02;3.75;;;;;;;;;;5051905;28;20425;-44
2022/03/30 12:12:37;;;;;;;8.70;4.03;;;;;;;;;;5051975;28;20033;-46
2022/03/30 12:15:03;;;;;;;12.75;4.63;;;;;;;;;;5051145;28;20036;-45
2022/03/30 12:17:30;;;;;;;9.25;4.22;;;;;;;;;;5052008;28;20078;-45
2022/03/30 12:19:56;;;;;;;9.27;3.92;;;;;;;;;;5050971;28;20021;-54
2022/03/30 12:22:22;;;;;;;7.20;3.88;;;;;;;;;;5051244;28;20501;-45
2022/03/30 12:24:48;;;;;;;9.30;4.30;;;;;;;;;;5051945;28;20163;-44
2022/03/30 12:27:15;;;;;;;7.45;3.65;;;;;;;;;;5050859;28;20089;-49
2022/03/30 12:29:41;;;;;;;10.93;5.00;;;;;;;;;;5051262;28;20032;-50
2022/03/30 12:32:10;;;;;;;9.25;4.60;;;;;;;;;;5049445;28;20497;-49
2022/03/30 12:34:37;;;;;;;11.05;4.43;;;;;;;;;;5049953;28;20044;-45
2022/03/30 12:37:05;;;;;;;9.00;4.25;;;;;;;;;;5050764;28;20316;-48
2022/03/30 12:39:39;;;;;;;11.68;4.82;;;;;;;;;;5051279;28;20482;-46
2022/03/30 12:42:09;;;;;;;9.30;4.22;;;;;;;;;;5061677;28;20428;-46
2022/03/30 12:44:42;;;;;;;8.63;4.38;;;;;;;;;;5051944;28;20117;-43
2022/03/30 12:47:16;;;;;;;6.00;3.65;;;;;;;;;;5050359;28;20118;-47
2022/03/30 12:49:42;;;;;;;8.38;4.35;;;;;;;;;;5051336;28;20382;-44
2022/03/30 12:52:11;;;;;;;8.65;3.35;;;;;;;;;;5050429;28;20018;-45
2022/03/30 12:54:37;;;;;;;7.43;3.35;;;;;;;;;;5051548;28;20025;-43
2022/03/30 12:57:03;;;;;;;8.82;4.25;;;;;;;;;;5050571;28;20538;-44
2022/03/30 12:59:29;;;;;;;7.97;4.00;;;;;;;;;;5051672;28;20462;-45
2022/03/30 13:01:55;;;;;;;6.72;4.03;;;;;;;;;;5050689;28;20032;-51
2022/03/30 13:04:30;;;;;;;8.88;3.33;;;;;;;;;;5050821;28;20031;-43
2022/03/30 13:07:09;;;;;;;8.52;3.58;;;;;;;;;;5051920;28;20108;-56
2022/03/30 13:09:35;;;;;;;5.32;3.42;;;;;;;;;;5055436;28;20116;-43
2022/03/30 13:12:01;;;;;;;8.50;3.00;;;;;;;;;;5054439;28;20537;-45
2022/03/30 13:14:27;;;;;;;6.25;2.78;;;;;;;;;;5055408;28;20106;-46
2022/03/30 13:17:09;;;;;;;5.75;3.13;;;;;;;;;;5054543;28;20025;-51
2022/03/30 13:19:36;;;;;;;4.22;2.67;;;;;;;;;;5054705;28;20548;-45
2022/03/30 13:22:05;;;;;;;5.75;2.88;;;;;;;;;;5054038;28;20029;-44
2022/03/30 13:24:31;;;;;;;3.95;2.75;;;;;;;;;;5055255;28;20033;-43
2022/03/30 13:26:58;;;;;;;3.35;2.25;;;;;;;;;;5054519;28;20390;-51
2022/03/30 13:29:24;;;;;;;3.33;2.30;;;;;;;;;;5055222;28;20025;-44
2022/03/30 13:31:51;;;;;;;4.80;2.28;;;;;;;;;;5054765;28;20025;-48
2022/03/30 13:34:18;;;;;;;4.22;2.88;;;;;;;;;;5054248;28;20092;-46
2022/03/30 13:36:46;;;;;;;5.05;2.22;;;;;;;;;;5054461;28;20037;-48
2022/03/30 13:39:12;;;;;;;3.53;2.28;;;;;;;;;;5053430;28;20108;-47
2022/03/30 13:41:39;;;;;;;5.55;2.53;;;;;;;;;;5054590;28;20129;-43
2022/03/30 13:44:05;;;;;;;2.72;2.08;;;;;;;;;;5053727;28;20086;-44
2022/03/30 13:46:31;;;;;;;3.08;2.00;;;;;;;;;;5054733;28;20032;-44
2022/03/30 13:48:57;;;;;;;2.75;1.60;;;;;;;;;;5054156;28;20040;-50
2022/03/30 13:51:23;;;;;;;3.38;1.85;;;;;;;;;;5061195;28;20020;-44
2022/03/30 13:53:50;;;;;;;4.60;1.98;;;;;;;;;;5070072;28;20389;-44
2022/03/30 13:56:17;;;;;;;3.47;2.13;;;;;;;;;;5053668;28;20013;-44
2022/03/30 13:58:44;;;;;;;4.82;2.50;;;;;;;;;;5054290;28;20028;-46
2022/03/30 14:01:10;;;;;;;5.10;2.20;;;;;;;;;;5053489;28;20025;-45
2022/03/30 14:03:36;;;;;;;5.75;1.95;;;;;;;;;;5053548;28;20033;-46
2022/03/30 14:06:03;;;;;;;4.07;1.90;;;;;;;;;;5051707;28;20470;-43
2022/03/30 14:08:29;;;;;;;4.65;2.25;;;;;;;;;;5053456;28;20033;-44
2022/03/30 14:10:55;;;;;;;4.38;2.15;;;;;;;;;;5054373;28;20429;-44
2022/03/30 14:13:22;;;;;;;3.63;2.47;;;;;;;;;;5053827;28;20029;-43
2022/03/30 14:15:49;;;;;;;5.28;2.20;;;;;;;;;;5053515;28;20082;-47
2022/03/30 14:18:18;;;;;;;4.55;2.15;;;;;;;;;;5052702;28;20033;-43
2022/03/30 14:20:45;;;;;;;3.78;2.15;;;;;;;;;;5054234;28;20020;-44
2022/03/30 14:23:11;;;;;;;5.68;1.80;;;;;;;;;;5053290;28;20112;-48
2022/03/30 14:25:38;;;;;;;3.20;1.70;;;;;;;;;;5052113;28;20032;-43
2022/03/30 14:28:05;;;;;;;2.38;1.60;;;;;;;;;;5052564;28;20111;-45
2022/03/30 14:30:31;;;;;;;3.00;1.88;;;;;;;;;;5053590;28;20028;-43
2022/03/30 14:32:58;;;;;;;3.75;1.83;;;;;;;;;;5053600;28;20031;-54
2022/03/30 14:35:25;;;;;;;3.03;2.00;;;;;;;;;;5053589;28;20040;-43
2022/03/30 14:37:51;;;;;;;2.85;1.95;;;;;;;;;;5053580;28;20032;-48
2022/03/30 14:40:17;;;;;;;3.85;1.65;;;;;;;;;;5052241;28;20104;-43
2022/03/30 14:42:43;;;;;;;2.67;1.95;;;;;;;;;;5053601;28;20025;-47
2022/03/30 14:45:12;;;;;;;2.83;1.75;;;;;;;;;;5052419;28;20040;-50
2022/03/30 14:47:38;;;;;;;3.03;2.00;;;;;;;;;;5052111;28;20040;-47
2022/03/30 14:50:05;;;;;;;2.33;1.60;;;;;;;;;;5051645;28;20021;-48
2022/03/30 14:52:31;;;;;;;3.47;1.88;;;;;;;;;;5053076;28;20033;-45
2022/03/30 14:54:59;;;;;;;2.63;1.70;;;;;;;;;;5052925;28;20128;-51